Time;durP1;ratioP1;P1;durP2;ratioP2;P2;SDS_P1;SDS_P2;PMS_P1;PMS_P2;Temp;Humidity;BMP_temperature;BMP_pressure;BME280_temperature;BME280_humidity;BME280_pressure;Samples;Min_cycle;Max_cycle;Signal;HPM_P1;HPM_P2
2022/06/17 04:23:17;;;;;;;3.88;3.45;;;;;;;9.97;100.00;101590.97;4921947;29;20045;-94
2022/06/17 04:25:54;;;;;;;3.00;2.70;;;;;;;10.05;100.00;101589.19;4855082;29;20045;-82
2022/06/17 04:28:25;;;;;;;3.67;3.33;;;;;;;10.13;100.00;101591.81;4849079;29;20048;-82
2022/06/17 04:30:58;;;;;;;3.45;3.00;;;;;;;10.18;100.00;101605.00;4842510;29;20041;-83
2022/06/17 04:36:17;;;;;;;3.65;2.63;;;;;;;10.20;100.00;101597.94;4922193;29;20048;-81
2022/06/17 04:38:53;;;;;;;6.97;3.22;;;;;;;10.30;100.00;101602.34;4913541;29;20052;-82
2022/06/17 04:41:23;;;;;;;35.45;6.65;;;;;;;10.48;100.00;101607.53;4917839;29;20067;-81
2022/06/17 04:43:53;;;;;;;9.15;4.70;;;;;;;10.72;100.00;101609.16;4899745;29;20406;-82
2022/06/17 04:46:23;;;;;;;10.48;3.90;;;;;;;10.95;100.00;101604.63;4881837;29;20048;-81
2022/06/17 04:48:51;;;;;;;8.40;4.35;;;;;;;11.04;100.00;101603.66;4894876;29;20478;-81
2022/06/17 04:51:18;;;;;;;5.40;3.70;;;;;;;11.24;100.00;101606.16;4881083;29;20050;-81
2022/06/17 04:53:46;;;;;;;6.38;4.28;;;;;;;11.35;100.00;101598.13;4891556;29;20039;-82
2022/06/17 04:56:18;;;;;;;5.32;3.90;;;;;;;11.46;100.00;101599.78;4864360;29;20431;-82
2022/06/17 04:58:45;;;;;;;14.48;5.10;;;;;;;11.57;100.00;101600.56;4863855;29;20506;-81
2022/06/17 05:01:17;;;;;;;17.08;5.57;;;;;;;11.67;100.00;101604.00;4864696;29;20044;-81
2022/06/17 05:03:44;;;;;;;6.97;4.47;;;;;;;11.76;100.00;101608.31;4875987;29;20056;-81
2022/06/17 05:06:11;;;;;;;16.67;4.22;;;;;;;11.80;100.00;101610.97;4861011;29;20117;-81
2022/06/17 05:08:42;;;;;;;8.18;4.40;;;;;;;11.85;100.00;101613.53;4896643;29;20051;-81
2022/06/17 05:11:17;;;;;;;7.45;4.20;;;;;;;12.03;100.00;101613.38;4911081;29;20044;-81
2022/06/17 05:14:00;;;;;;;5.47;4.10;;;;;;;12.28;100.00;101613.97;4895498;29;20044;-81
2022/06/17 05:16:27;;;;;;;4.97;3.97;;;;;;;12.79;100.00;101619.47;4897660;29;20044;-80
2022/06/17 05:18:54;;;;;;;3.50;3.20;;;;;;;14.04;100.00;101606.75;4873509;29;20304;-80
2022/06/17 05:21:25;;;;;;;4.88;3.40;;;;;;;14.67;100.00;101616.09;4929086;23;20041;-77
2022/06/17 05:23:54;;;;;;;4.53;4.13;;;;;;;14.67;99.51;101605.44;4886798;29;20644;-77
2022/06/17 05:26:21;;;;;;;4.22;3.83;;;;;;;14.63;100.00;101601.13;4896464;29;20115;-79
2022/06/17 05:28:48;;;;;;;5.05;3.65;;;;;;;14.60;100.00;101609.16;4879724;29;20044;-78
2022/06/17 05:31:17;;;;;;;4.00;3.30;;;;;;;14.48;100.00;101609.44;4927224;29;20046;-78
2022/06/17 05:33:46;;;;;;;8.85;3.67;;;;;;;14.51;100.00;101612.88;4889354;29;20095;-78
2022/06/17 05:36:13;;;;;;;5.43;4.00;;;;;;;14.57;100.00;101610.09;4892092;29;20048;-78
2022/06/17 05:38:41;;;;;;;6.53;3.60;;;;;;;14.98;99.62;101610.97;4883315;29;20044;-79
2022/06/17 05:41:19;;;;;;;5.93;3.72;;;;;;;16.93;88.47;101602.06;4883594;29;20127;-78
2022/06/17 05:43:49;;;;;;;4.90;3.13;;;;;;;19.60;70.81;101593.91;4873453;29;20051;-78
2022/06/17 05:46:20;;;;;;;4.28;2.97;;;;;;;22.02;59.80;101586.66;4891498;29;20051;-79
2022/06/17 05:48:46;;;;;;;6.97;3.30;;;;;;;23.70;53.20;101590.59;4886396;29;20048;-79
2022/06/17 05:51:13;;;;;;;4.97;3.10;;;;;;;25.10;48.00;101586.25;4907206;29;20044;-79
2022/06/17 05:53:40;;;;;;;4.95;2.60;;;;;;;26.12;44.85;101583.72;4897933;29;20040;-79
2022/06/17 05:56:07;;;;;;;5.15;3.33;;;;;;;27.22;42.71;101589.25;4920612;29;20040;-78
2022/06/17 05:58:34;;;;;;;4.47;3.05;;;;;;;27.55;40.49;101588.50;4888374;29;20051;-79
2022/06/17 06:01:00;;;;;;;3.75;2.80;;;;;;;27.48;40.38;101581.81;4883018;29;20047;-78
2022/06/17 06:03:28;;;;;;;5.80;2.88;;;;;;;27.39;40.02;101596.97;4911757;29;20781;-79
2022/06/17 06:05:55;;;;;;;5.82;2.80;;;;;;;26.90;41.77;101592.47;4898113;29;20143;-77
2022/06/17 06:08:21;;;;;;;6.20;3.15;;;;;;;26.08;43.25;101595.78;4904488;29;20044;-78
2022/06/17 06:10:48;;;;;;;4.57;2.55;;;;;;;25.50;44.57;101597.09;4884036;29;20446;-77
2022/06/17 06:13:22;;;;;;;5.10;3.55;;;;;;;24.26;46.96;101602.44;4885542;29;20093;-77
2022/06/17 06:15:49;;;;;;;;;;;;;;;23.63;49.85;101601.88;4896210;29;20039;-78
2022/06/17 06:18:25;;;;;;;4.72;3.28;;;;;;;23.49;51.35;101599.97;4882115;29;19926;-77
2022/06/17 06:20:51;;;;;;;5.30;3.53;;;;;;;23.31;51.27;101596.56;4879962;29;20398;-78
2022/06/17 06:23:20;;;;;;;5.45;3.10;;;;;;;22.90;52.78;101607.91;4896342;29;20126;-77
2022/06/17 06:25:47;;;;;;;3.40;3.10;;;;;;;23.01;53.08;101599.19;4912795;29;20036;-77
2022/06/17 06:28:21;;;;;;;3.70;3.25;;;;;;;22.86;52.23;101608.16;4894990;29;20040;-78
2022/06/17 06:30:54;;;;;;;5.07;3.15;;;;;;;23.05;51.87;101606.16;4910761;29;20055;-78
2022/06/17 06:33:21;;;;;;;118.65;18.00;;;;;;;23.06;51.59;101612.41;4874726;29;20056;-78
2022/06/17 06:35:48;;;;;;;6.78;3.15;;;;;;;22.93;53.05;101621.19;4889741;29;20036;-77
2022/06/17 06:38:15;;;;;;;12.93;3.72;;;;;;;23.35;51.36;101613.41;4874850;29;20680;-79
2022/06/17 06:40:41;;;;;;;3.15;2.80;;;;;;;23.34;50.72;101623.31;4892113;29;20044;-77
2022/06/17 06:43:17;;;;;;;4.30;2.50;;;;;;;23.50;50.93;101618.75;4859080;29;20052;-78
2022/06/17 06:45:47;;;;;;;4.35;2.75;;;;;;;23.70;51.10;101624.81;4880455;29;20045;-79
2022/06/17 06:48:15;;;;;;;3.58;2.90;;;;;;;23.22;50.69;101619.53;4866096;29;20067;-79
2022/06/17 06:50:42;;;;;;;5.55;2.75;;;;;;;23.26;51.92;101622.91;4892039;29;20679;-78
2022/06/17 06:53:09;;;;;;;34.88;7.07;;;;;;;23.52;49.93;101622.22;4896097;29;20109;-78
2022/06/17 06:55:37;;;;;;;4.72;2.90;;;;;;;23.69;48.44;101629.34;4875333;29;20052;-78
2022/06/17 06:58:10;;;;;;;4.30;2.20;;;;;;;23.83;48.28;101626.69;4892812;29;20114;-79
2022/06/17 07:00:40;;;;;;;4.30;2.80;;;;;;;24.02;47.83;101633.66;4874651;29;20044;-80
2022/06/17 07:03:07;;;;;;;3.97;2.83;;;;;;;23.50;48.77;101628.69;4881786;29;20044;-78
2022/06/17 07:05:37;;;;;;;4.38;2.50;;;;;;;23.42;47.97;101625.56;4878723;29;20054;-78
2022/06/17 07:08:05;;;;;;;2.95;2.22;;;;;;;23.69;48.86;101631.19;4873417;29;20890;-77
2022/06/17 07:10:34;;;;;;;5.25;3.05;;;;;;;23.92;47.53;101635.19;4890385;29;20078;-77
2022/06/17 07:13:02;;;;;;;3.40;2.33;;;;;;;24.29;45.82;101631.94;4874515;29;20042;-77
2022/06/17 07:15:29;;;;;;;3.15;2.58;;;;;;;24.14;45.50;101631.09;4890412;29;20051;-78
2022/06/17 07:18:05;;;;;;;4.85;3.03;;;;;;;24.12;45.86;101633.00;4884375;29;20044;-77
2022/06/17 07:20:37;;;;;;;4.13;3.00;;;;;;;24.04;44.82;101637.13;4888219;29;20046;-79
2022/06/17 07:23:05;;;;;;;288.65;41.05;;;;;;;24.23;45.43;101636.88;4892219;29;20040;-76
2022/06/17 07:25:33;;;;;;;3.50;2.30;;;;;;;24.13;45.05;101641.97;4896628;29;20044;-79
2022/06/17 07:28:00;;;;;;;4.05;2.28;;;;;;;24.11;45.19;101638.50;4867202;29;20631;-78
2022/06/17 07:30:28;;;;;;;3.42;2.50;;;;;;;24.28;45.28;101642.84;4881577;29;20051;-78
2022/06/17 07:32:54;;;;;;;4.20;2.67;;;;;;;24.27;44.52;101639.28;4883381;29;20043;-80
2022/06/17 07:35:21;;;;;;;3.83;2.47;;;;;;;24.28;44.40;101643.72;4881865;29;20047;-78
2022/06/17 07:40:47;;;;;;;5.70;2.17;;;;;;;24.28;42.89;101645.56;4910897;29;20430;-79
2022/06/17 07:43:17;;;;;;;;;;;;;;;24.25;43.87;101643.06;4890110;29;20468;-80
2022/06/17 07:45:44;;;;;;;2.72;2.10;;;;;;;24.18;42.13;101642.56;4900594;29;20553;-77
2022/06/17 07:48:13;;;;;;;2.65;1.90;;;;;;;24.66;40.79;101654.84;4889100;29;20485;-79
2022/06/17 07:50:41;;;;;;;2.17;1.80;;;;;;;24.58;39.41;101657.19;4882829;29;20072;-78
2022/06/17 07:53:08;;;;;;;3.55;1.83;;;;;;;24.13;41.45;101650.97;4879253;29;20040;-78
2022/06/17 07:55:35;;;;;;;2.15;1.95;;;;;;;24.33;40.81;101648.88;4879639;29;20055;-79
2022/06/17 07:58:02;;;;;;;4.07;2.58;;;;;;;24.28;43.02;101649.13;4881652;29;20051;-78
2022/06/17 08:00:36;;;;;;;6.47;2.60;;;;;;;24.53;41.49;101645.78;4905431;29;20458;-80
2022/06/17 08:03:11;;;;;;;3.50;2.03;;;;;;;24.94;40.99;101650.38;4877165;29;20056;-77
2022/06/17 08:05:47;;;;;;;4.53;2.47;;;;;;;25.34;40.24;101636.97;4872598;29;20048;-79
2022/06/17 08:08:21;;;;;;;4.07;2.63;;;;;;;25.30;39.63;101644.41;4873071;29;20044;-77
2022/06/17 08:10:59;;;;;;;3.53;2.25;;;;;;;24.47;41.09;101645.28;4874540;29;20063;-78
2022/06/17 08:13:26;;;;;;;4.72;2.30;;;;;;;24.66;39.93;101648.59;4863265;29;20052;-78
2022/06/17 08:15:56;;;;;;;4.15;2.30;;;;;;;24.68;40.17;101642.09;4862934;29;20044;-78
2022/06/17 08:18:23;;;;;;;2.50;2.20;;;;;;;25.04;41.58;101637.16;4902808;29;20049;-80
2022/06/17 08:20:50;;;;;;;8.55;2.65;;;;;;;25.03;39.26;101640.81;4886268;29;20041;-77
2022/06/17 08:23:17;;;;;;;5.53;2.58;;;;;;;25.27;39.96;101650.88;4887399;29;20645;-78
2022/06/17 08:25:44;;;;;;;5.03;2.67;;;;;;;25.45;39.87;101656.03;4870966;29;20040;-78
2022/06/17 08:28:12;;;;;;;2.42;2.10;;;;;;;25.59;39.21;101658.69;4911842;29;20058;-77
2022/06/17 08:30:42;;;;;;;2.75;2.30;;;;;;;25.74;39.64;101641.44;4893048;29;21006;-78
2022/06/17 08:33:10;;;;;;;4.07;2.35;;;;;;;26.19;38.86;101639.22;4895638;29;20500;-77
2022/06/17 08:35:59;;;;;;;2.58;2.38;;;;;;;25.77;38.01;101646.63;4881870;29;20052;-77
2022/06/17 08:38:47;;;;;;;3.13;2.60;;;;;;;25.53;39.22;101651.84;4895969;29;20048;-78
2022/06/17 08:41:30;;;;;;;3.40;2.40;;;;;;;25.95;39.29;101654.47;4896384;29;20650;-78
2022/06/17 08:44:15;;;;;;;2.80;2.50;;;;;;;25.92;38.95;101646.56;4879115;29;20055;-78
2022/06/17 08:47:13;;;;;;;2.72;2.40;;;;;;;25.68;38.67;101641.81;4879917;29;20044;-78
2022/06/17 08:49:53;;;;;;;3.70;2.25;;;;;;;26.14;39.69;101635.94;4895690;29;20115;-78
2022/06/17 08:52:45;;;;;;;4.35;2.47;;;;;;;26.50;37.17;101643.34;4880731;29;20138;-77
2022/06/17 08:55:31;;;;;;;3.97;2.30;;;;;;;26.58;36.78;101640.09;4894697;29;20055;-77
2022/06/17 08:58:09;;;;;;;2.70;2.15;;;;;;;26.65;35.47;101644.06;4912742;29;20127;-77
2022/06/17 09:00:49;;;;;;;23.13;4.95;;;;;;;26.76;36.17;101638.75;4894896;29;20051;-77
2022/06/17 09:03:29;;;;;;;107.32;14.70;;;;;;;26.65;35.38;101644.06;4895506;29;20060;-77
2022/06/17 09:06:06;;;;;;;5.38;2.50;;;;;;;26.67;34.79;101639.44;4895528;29;20047;-77
2022/06/17 09:09:02;;;;;;;4.55;2.28;;;;;;;26.40;36.36;101633.25;4889350;29;20048;-75
2022/06/17 09:11:35;;;;;;;3.15;2.25;;;;;;;25.82;37.71;101638.22;4879847;29;20056;-77
2022/06/17 09:14:08;;;;;;;99.25;15.30;;;;;;;26.22;35.42;101635.41;4897917;29;20123;-78
2022/06/17 09:16:44;;;;;;;4.53;2.20;;;;;;;26.05;36.66;101633.88;4881800;29;20047;-78
2022/06/17 09:19:14;;;;;;;2.88;1.90;;;;;;;26.20;36.77;101637.38;4895618;29;20080;-77
2022/06/17 09:21:50;;;;;;;4.70;2.42;;;;;;;26.58;35.28;101626.53;4891843;29;20103;-77
2022/06/17 09:24:22;;;;;;;3.67;1.90;;;;;;;27.31;34.48;101629.25;4867850;29;20680;-77
2022/06/17 09:27:01;;;;;;;3.15;2.10;;;;;;;26.80;34.56;101628.53;4884115;29;20048;-78
2022/06/17 09:29:43;;;;;;;4.70;2.17;;;;;;;26.97;34.64;101632.72;4881262;29;20063;-77
2022/06/17 09:32:12;;;;;;;4.15;2.55;;;;;;;26.85;34.95;101621.81;4899497;29;20048;-77
2022/06/17 09:34:56;;;;;;;4.90;2.15;;;;;;;26.89;34.16;101619.72;4899049;29;20055;-76
2022/06/17 09:37:28;;;;;;;;;;;;;;;26.82;34.46;101624.75;4917450;29;20044;-78
2022/06/17 09:40:00;;;;;;;3.85;2.45;;;;;;;27.02;35.12;101619.69;4899108;29;19927;-76
2022/06/17 09:42:41;;;;;;;2.55;1.70;;;;;;;27.12;33.04;101616.19;4900230;29;20058;-77
2022/06/17 09:45:18;;;;;;;2.20;1.92;;;;;;;27.48;32.60;101617.97;4898821;29;20066;-79
2022/06/17 09:47:51;;;;;;;2.05;1.70;;;;;;;27.37;32.42;101620.63;4884299;29;20533;-77
2022/06/17 09:50:21;;;;;;;1.35;1.25;;;;;;;27.23;31.12;101611.81;4897779;29;20044;-76
2022/06/17 09:52:53;;;;;;;7.00;2.00;;;;;;;26.79;32.53;101614.09;4900797;29;20115;-77
2022/06/17 09:55:33;;;;;;;2.33;1.63;;;;;;;27.17;32.55;101607.72;4900070;29;20048;-77
2022/06/17 09:58:15;;;;;;;1.85;1.67;;;;;;;27.37;31.55;101612.50;4886608;29;20051;-78
2022/06/17 10:00:46;;;;;;;3.05;1.70;;;;;;;27.39;31.40;101605.09;4896024;29;20044;-77
2022/06/17 10:03:39;;;;;;;1.80;1.60;;;;;;;27.82;32.32;101612.69;4860433;29;20052;-77
2022/06/17 10:06:15;;;;;;;1.60;1.42;;;;;;;28.11;31.11;101609.53;4899574;29;20052;-77
2022/06/17 10:09:15;;;;;;;2.58;1.55;;;;;;;27.72;31.42;101609.81;4887507;29;20052;-79
2022/06/17 10:12:07;;;;;;;2.75;1.92;;;;;;;27.69;31.58;101601.06;4897512;29;20120;-77
2022/06/17 10:14:49;;;;;;;2.95;1.90;;;;;;;27.73;31.11;101607.97;4896544;29;20037;-78
2022/06/17 10:20:37;;;;;;;25.25;3.95;;;;;;;28.11;31.22;101596.81;4908159;29;20040;-77
2022/06/17 10:23:29;;;;;;;3.42;1.80;;;;;;;28.01;30.67;101587.66;4858041;29;20052;-78
2022/06/17 10:26:22;;;;;;;2.42;1.90;;;;;;;28.24;31.04;101592.09;4899579;29;20048;-78
2022/06/17 10:29:06;;;;;;;2.22;1.70;;;;;;;28.12;31.45;101595.81;4899984;29;20074;-77
2022/06/17 10:31:44;;;;;;;3.50;2.25;;;;;;;28.24;31.81;101597.53;4906576;29;20055;-79
2022/06/17 10:34:19;;;;;;;3.30;2.28;;;;;;;28.48;30.36;101592.03;4884843;29;20532;-77
2022/06/17 10:36:46;;;;;;;2.03;1.77;;;;;;;28.56;30.20;101583.25;4898483;29;20104;-78
2022/06/17 10:39:16;;;;;;;2.55;1.70;;;;;;;28.98;30.30;101576.16;4885696;29;20119;-76
2022/06/17 10:41:43;;;;;;;2.97;2.10;;;;;;;28.80;29.17;101580.38;4901583;29;20056;-78
2022/06/17 10:44:12;;;;;;;2.47;1.83;;;;;;;28.49;29.81;101582.88;4886332;29;20134;-77
2022/06/17 10:46:42;;;;;;;2.47;1.60;;;;;;;27.99;30.74;101571.47;4878492;29;20072;-78
2022/06/17 10:49:37;;;;;;;1.90;1.80;;;;;;;27.85;30.89;101576.28;4865404;29;20052;-78
2022/06/17 10:52:11;;;;;;;2.38;1.80;;;;;;;27.66;32.48;101579.53;4896232;29;20052;-78
2022/06/17 10:54:38;;;;;;;2.45;2.00;;;;;;;27.37;32.00;101571.78;4889362;29;20044;-78
2022/06/17 10:57:08;;;;;;;2.55;2.15;;;;;;;27.19;32.77;101568.66;4883365;29;20052;-79
2022/06/17 10:59:43;;;;;;;1.95;1.60;;;;;;;27.91;31.74;101573.94;4890873;29;20051;-78
2022/06/17 11:02:20;;;;;;;3.25;1.88;;;;;;;28.49;32.48;101569.28;4886828;29;20082;-78
2022/06/17 11:04:54;;;;;;;3.22;2.20;;;;;;;27.86;32.18;101565.28;4914275;29;20147;-77
2022/06/17 11:07:29;;;;;;;2.28;1.92;;;;;;;28.33;32.19;101566.06;4895715;29;20040;-77
2022/06/17 11:10:14;;;;;;;2.00;1.80;;;;;;;28.08;31.18;101566.28;4897002;29;20406;-77
2022/06/17 11:12:43;;;;;;;1.90;1.75;;;;;;;27.50;30.68;101566.31;4913457;29;20609;-77
2022/06/17 11:15:28;;;;;;;9.52;2.67;;;;;;;27.75;31.33;101568.88;4880541;29;20123;-78
2022/06/17 11:17:58;;;;;;;3.38;1.90;;;;;;;27.78;32.16;101562.31;4907429;29;20032;-77
2022/06/17 11:20:30;;;;;;;2.20;2.00;;;;;;;28.39;31.30;101568.31;4895506;29;20046;-78
2022/06/17 11:23:21;;;;;;;2.30;1.70;;;;;;;29.02;30.03;101564.03;4887030;29;20045;-77
2022/06/17 11:25:48;;;;;;;2.47;1.80;;;;;;;29.03;29.41;101556.72;4895628;29;20052;-77
2022/06/17 11:28:24;;;;;;;1.83;1.55;;;;;;;29.33;28.42;101555.97;4881398;29;20052;-76
2022/06/17 11:31:03;;;;;;;2.60;1.50;;;;;;;29.08;29.59;101557.19;4880111;29;20082;-76
2022/06/17 11:33:41;;;;;;;2.20;1.70;;;;;;;29.39;29.14;101558.16;4886552;29;20119;-77
2022/06/17 11:36:18;;;;;;;2.13;1.70;;;;;;;29.59;28.95;101549.16;4881374;29;20056;-76
2022/06/17 11:38:46;;;;;;;2.08;1.83;;;;;;;29.75;28.86;101542.38;4895621;29;20221;-76
2022/06/17 11:41:22;;;;;;;2.30;1.67;;;;;;;29.80;29.06;101541.00;4882226;29;20044;-77
2022/06/17 11:43:49;;;;;;;2.97;1.95;;;;;;;29.65;28.70;101556.81;4910496;29;20412;-76
2022/06/17 11:46:22;;;;;;;2.05;1.85;;;;;;;29.15;28.96;101566.56;4868953;29;20107;-77
2022/06/17 11:48:56;;;;;;;3.30;1.98;;;;;;;29.17;29.46;101557.25;4892163;29;20422;-78
2022/06/17 11:51:31;;;;;;;2.10;1.90;;;;;;;28.97;29.42;101547.22;4871190;29;20051;-76
2022/06/17 11:54:05;;;;;;;2.58;1.80;;;;;;;28.50;30.39;101537.53;4890501;29;20447;-77
2022/06/17 11:56:32;;;;;;;2.42;1.73;;;;;;;28.75;29.54;101544.53;4893543;29;20044;-77
2022/06/17 11:59:12;;;;;;;2.22;1.70;;;;;;;28.82;29.77;101543.88;4891901;29;20053;-76
2022/06/17 12:01:41;;;;;;;4.20;1.90;;;;;;;29.29;29.23;101540.91;4894404;29;20148;-77
2022/06/17 12:04:46;;;;;;;2.58;1.60;;;;;;;29.30;28.90;101537.19;4861249;29;20052;-77
2022/06/17 12:07:27;;;;;;;5.55;2.05;;;;;;;29.25;28.30;101528.53;4893047;29;20052;-77
2022/06/17 12:10:02;;;;;;;1.85;1.70;;;;;;;29.23;29.16;101519.66;4876211;29;20056;-77
2022/06/17 12:12:30;;;;;;;2.53;1.80;;;;;;;29.46;29.22;101521.25;4862072;29;20044;-76
2022/06/17 12:14:59;;;;;;;3.65;1.88;;;;;;;29.41;27.78;101526.22;4905338;29;20092;-77
2022/06/17 12:17:27;;;;;;;2.28;1.77;;;;;;;29.31;28.88;101518.00;4881033;29;20064;-77
2022/06/17 12:19:55;;;;;;;2.35;1.75;;;;;;;28.37;29.19;101512.34;4895222;29;20059;-76
2022/06/17 12:22:45;;;;;;;2.15;1.55;;;;;;;28.63;30.31;101521.06;4896141;29;20100;-76
2022/06/17 12:25:44;;;;;;;2.28;1.80;;;;;;;28.83;30.42;101512.09;4867410;29;20067;-77
2022/06/17 12:28:17;;;;;;;2.00;1.70;;;;;;;29.14;30.00;101518.56;4912896;29;20044;-76
2022/06/17 12:31:16;;;;;;;2.53;1.60;;;;;;;29.12;27.92;101526.03;4894601;29;20067;-77
2022/06/17 12:34:01;;;;;;;1.98;1.88;;;;;;;29.09;28.64;101528.97;4842873;29;20083;-77
2022/06/17 12:36:50;;;;;;;2.40;1.80;;;;;;;28.99;27.94;101514.44;4879868;29;20060;-76
2022/06/17 12:39:43;;;;;;;1.80;1.40;;;;;;;29.10;28.12;101506.25;4879183;29;20052;-77
2022/06/17 12:42:27;;;;;;;2.38;1.60;;;;;;;28.62;27.99;101506.63;4893956;29;20050;-78
2022/06/17 12:45:08;;;;;;;3.03;1.90;;;;;;;28.31;29.07;101502.84;4878718;29;20048;-76
2022/06/17 12:48:03;;;;;;;27.00;4.68;;;;;;;28.70;29.45;101508.69;4879845;29;20528;-78
2022/06/17 12:53:42;;;;;;;2.03;1.50;;;;;;;28.75;28.15;101491.00;4877339;29;20068;-77
2022/06/17 12:56:14;;;;;;;1.70;1.50;;;;;;;28.79;28.46;101483.44;4901312;29;20050;-77
2022/06/17 12:59:02;;;;;;;16.30;3.88;;;;;;;28.98;28.17;101489.09;4877952;29;20042;-77
2022/06/17 13:01:57;;;;;;;1.52;1.38;;;;;;;28.96;29.00;101491.09;4878970;29;20076;-77
2022/06/17 13:04:24;;;;;;;1.50;1.40;;;;;;;29.10;28.28;101488.06;4889795;29;20389;-79
2022/06/17 13:07:11;;;;;;;3.20;1.70;;;;;;;28.80;27.94;101485.19;4902978;29;20049;-77
2022/06/17 13:09:53;;;;;;;1.67;1.55;;;;;;;28.97;28.05;101481.06;4874717;29;20045;-77
2022/06/17 13:12:34;;;;;;;215.50;30.83;;;;;;;29.05;28.49;101484.84;4893667;29;20775;-78
2022/06/17 13:15:15;;;;;;;3.17;1.60;;;;;;;29.01;27.67;101498.84;4890051;29;20494;-78
2022/06/17 13:17:59;;;;;;;2.15;1.60;;;;;;;28.91;27.20;101490.59;4876124;29;20074;-77
2022/06/17 13:20:31;;;;;;;11.30;2.55;;;;;;;28.84;27.85;101497.50;4860702;29;20056;-80
2022/06/17 13:23:03;;;;;;;11.57;2.75;;;;;;;28.77;27.23;101486.31;4912092;29;20055;-76
2022/06/17 13:25:52;;;;;;;1.70;1.50;;;;;;;28.37;27.82;101499.63;4874565;29;20048;-77
2022/06/17 13:28:30;;;;;;;3.95;1.80;;;;;;;28.52;28.45;101500.22;4860483;29;20044;-77
2022/06/17 13:31:07;;;;;;;1.80;1.70;;;;;;;28.31;28.35;101486.53;4864691;29;20044;-77
2022/06/17 13:33:43;;;;;;;2.05;1.80;;;;;;;28.53;28.79;101500.09;4870861;29;20048;-78
2022/06/17 13:36:14;;;;;;;2.33;1.58;;;;;;;28.62;27.59;101497.59;4878762;29;20553;-78
2022/06/17 13:38:58;;;;;;;3.00;1.63;;;;;;;28.67;27.38;101493.53;4893154;29;20537;-79
2022/06/17 13:41:34;;;;;;;2.20;1.70;;;;;;;28.75;27.88;101485.56;4890945;29;20510;-77
2022/06/17 13:44:10;;;;;;;2.33;1.60;;;;;;;28.71;28.39;101489.53;4892668;29;20437;-78
2022/06/17 13:46:49;;;;;;;2.88;1.60;;;;;;;28.12;28.17;101491.72;4859121;29;20043;-77
2022/06/17 13:49:34;;;;;;;2.38;1.73;;;;;;;27.82;29.85;101501.34;4861421;29;20059;-77
2022/06/17 13:52:07;;;;;;;58.75;9.40;;;;;;;27.89;28.91;101499.88;4889132;29;20136;-76
2022/06/17 13:54:46;;;;;;;2.58;1.63;;;;;;;28.06;29.12;101487.63;4910684;29;20054;-76
2022/06/17 13:57:25;;;;;;;2.53;1.75;;;;;;;28.17;28.86;101492.22;4867424;29;20055;-77
2022/06/17 13:59:55;;;;;;;1.80;1.70;;;;;;;28.25;28.87;101493.31;4879180;29;20052;-78
2022/06/17 14:02:58;;;;;;;2.42;1.75;;;;;;;28.16;28.38;101487.75;4898659;29;20040;-77
2022/06/17 14:05:28;;;;;;;2.10;1.90;;;;;;;27.93;27.94;101493.22;4896728;29;20126;-78
2022/06/17 14:08:01;;;;;;;2.00;1.90;;;;;;;27.99;28.87;101497.25;4895395;29;20076;-78
2022/06/17 14:10:36;;;;;;;;;;;;;;;28.00;28.56;101491.75;4882072;29;20085;-76
2022/06/17 14:13:17;;;;;;;1.90;1.73;;;;;;;27.75;29.25;101495.56;4908774;29;19934;-78
2022/06/17 14:15:48;;;;;;;2.80;1.63;;;;;;;27.72;29.05;101494.91;4887649;29;20067;-78
2022/06/17 14:18:20;;;;;;;1.92;1.83;;;;;;;27.85;29.45;101492.97;4865901;29;20044;-78
2022/06/17 14:20:57;;;;;;;16.87;3.40;;;;;;;27.86;29.10;101499.25;4876513;29;20044;-77
2022/06/17 14:23:24;;;;;;;3.70;2.08;;;;;;;27.98;29.62;101485.53;4903654;29;20653;-79
2022/06/17 14:25:57;;;;;;;3.13;2.10;;;;;;;27.55;29.19;101498.06;4887577;29;20041;-77
2022/06/17 14:28:46;;;;;;;3.55;1.90;;;;;;;27.60;29.46;101488.59;4886496;29;20115;-78
2022/06/17 14:31:22;;;;;;;4.18;2.53;;;;;;;27.64;30.16;101494.63;4890830;29;20657;-77
2022/06/17 14:33:55;;;;;;;10.98;2.58;;;;;;;27.65;29.77;101496.34;4900424;29;20072;-76
2022/06/17 14:36:45;;;;;;;1.80;1.53;;;;;;;27.29;29.78;101487.41;4891935;29;20047;-78
2022/06/17 14:39:39;;;;;;;2.08;1.88;;;;;;;27.24;30.70;101484.16;4886383;29;20044;-76
2022/06/17 14:42:18;;;;;;;;;;;;;;;27.39;31.05;101479.41;4907774;29;20039;-78
2022/06/17 14:44:51;;;;;;;2.65;2.03;;;;;;;27.65;30.55;101480.06;4882970;29;20448;-77
2022/06/17 14:47:18;;;;;;;3.05;1.70;;;;;;;27.79;30.79;101474.44;4897533;29;20056;-78
2022/06/17 14:50:00;;;;;;;3.22;1.85;;;;;;;27.99;29.90;101475.53;4894071;29;20627;-78
2022/06/17 14:52:34;;;;;;;2.55;1.73;;;;;;;28.05;29.37;101467.75;4908376;29;20677;-78
2022/06/17 14:55:03;;;;;;;45.35;6.95;;;;;;;27.83;29.15;101466.91;4895389;29;20044;-78
2022/06/17 14:57:32;;;;;;;1.80;1.60;;;;;;;27.87;29.59;101466.53;4900264;29;20050;-78
2022/06/17 15:00:08;;;;;;;2.15;1.67;;;;;;;27.93;29.25;101467.91;4873847;29;20044;-78
2022/06/17 15:02:39;;;;;;;2.55;1.88;;;;;;;27.83;28.46;101467.78;4906660;29;20051;-78
2022/06/17 15:05:17;;;;;;;1.60;1.50;;;;;;;27.84;29.49;101461.38;4890271;29;20048;-78
2022/06/17 15:07:52;;;;;;;2.63;1.90;;;;;;;27.64;29.13;101462.03;4866570;29;20051;-77
2022/06/17 15:10:23;;;;;;;2.45;1.60;;;;;;;27.60;29.61;101466.88;4912143;29;20656;-77
2022/06/17 15:12:57;;;;;;;2.13;1.77;;;;;;;27.59;29.26;101464.28;4903202;29;20074;-78
2022/06/17 15:15:32;;;;;;;2.22;1.90;;;;;;;27.36;29.27;101474.22;4888705;29;20231;-78
2022/06/17 15:18:03;;;;;;;1.95;1.60;;;;;;;27.22;29.20;101461.72;4885646;29;20123;-78
2022/06/17 15:20:37;;;;;;;1.63;1.52;;;;;;;27.10;29.78;101468.13;4912370;29;20139;-77
2022/06/17 15:23:25;;;;;;;1.75;1.40;;;;;;;26.86;30.22;101466.25;4893665;29;20043;-76
2022/06/17 15:25:56;;;;;;;2.80;1.42;;;;;;;26.81;30.35;101462.16;4911954;29;20075;-78
2022/06/17 15:28:38;;;;;;;3.05;1.80;;;;;;;26.64;30.35;101468.84;4907472;29;20043;-79
2022/06/17 15:31:14;;;;;;;3.70;1.77;;;;;;;26.65;30.24;101462.44;4892370;29;20036;-78
2022/06/17 15:33:48;;;;;;;289.25;44.03;;;;;;;26.64;30.72;101464.31;4884353;29;20144;-78
2022/06/17 15:36:54;;;;;;;5.72;2.00;;;;;;;26.56;30.96;101468.56;4883779;29;20063;-78
2022/06/17 15:39:32;;;;;;;2.28;1.60;;;;;;;26.54;31.23;101465.97;4800646;29;20429;-77
2022/06/17 15:42:04;;;;;;;2.45;1.58;;;;;;;26.31;31.48;101461.38;4833491;29;20487;-77
2022/06/17 15:44:39;;;;;;;3.40;1.90;;;;;;;26.14;31.53;101462.59;4864170;29;20064;-77
2022/06/17 15:47:17;;;;;;;1.77;1.60;;;;;;;26.03;31.96;101460.69;4891703;29;20047;-77
2022/06/17 15:50:00;;;;;;;2.08;1.50;;;;;;;26.03;32.01;101452.56;4892006;29;20048;-77
2022/06/17 15:52:28;;;;;;;2.78;1.50;;;;;;;26.04;32.29;101450.72;4894024;29;20043;-79
2022/06/17 15:54:59;;;;;;;2.38;1.42;;;;;;;26.13;32.52;101452.75;4891245;29;20039;-77
2022/06/17 15:57:31;;;;;;;2.28;1.58;;;;;;;26.09;33.14;101454.84;4873559;29;20055;-78
2022/06/17 15:59:59;;;;;;;1.85;1.70;;;;;;;25.93;32.33;101458.78;4883422;29;20506;-78
2022/06/17 16:02:29;;;;;;;2.50;1.70;;;;;;;25.90;32.61;101449.03;4910769;29;20048;-77
2022/06/17 16:05:11;;;;;;;2.78;1.77;;;;;;;25.97;32.57;101447.59;4875381;29;20048;-77
2022/06/17 16:07:38;;;;;;;2.25;1.30;;;;;;;26.14;32.65;101445.50;4884620;29;20562;-77
2022/06/17 16:10:41;;;;;;;2.42;1.67;;;;;;;26.32;33.06;101442.31;4899989;29;20047;-78
2022/06/17 16:13:31;;;;;;;2.03;1.65;;;;;;;26.46;32.88;101440.44;4842854;29;20057;-78
2022/06/17 16:16:02;;;;;;;3.28;1.58;;;;;;;26.53;32.02;101442.56;4878683;29;20050;-76
2022/06/17 16:18:32;;;;;;;3.03;1.58;;;;;;;26.54;31.80;101435.31;4884822;29;20032;-77
2022/06/17 16:21:25;;;;;;;2.05;1.85;;;;;;;26.49;32.13;101430.25;4896224;29;20071;-78
2022/06/17 16:23:53;;;;;;;1.97;1.53;;;;;;;26.45;32.53;101431.44;4894157;29;20772;-79
2022/06/17 16:26:23;;;;;;;1.70;1.60;;;;;;;26.32;32.15;101436.03;4878642;29;20060;-78
2022/06/17 16:28:51;;;;;;;2.58;1.80;;;;;;;26.34;32.63;101432.22;4882294;29;21189;-78
2022/06/17 16:31:29;;;;;;;1.92;1.63;;;;;;;26.34;32.66;101429.50;4892884;29;20044;-78
2022/06/17 16:34:01;;;;;;;2.25;1.90;;;;;;;26.31;32.12;101416.16;4872366;29;20136;-78